新種子島空港の過去48時間の天気

新種子島空港 (Tanegashima)

現在時刻: 8/18 23:19 JST (8/18 14:19 UTC) 以下の時間は現地時間です。

過去48時間のMETAR気象情報
時間 風向 風速(m/s) 視程 気温(℃) 湿度(%) 気圧(hPa) 天気現象
18 18:00 西 8 10km以上 28 89 1010
18 17:00 西 6 10km以上 28 84 1010
18 16:00 西 6 10km以上 28 89 1010
18 15:00 西 5 10km以上 28 89 1010
18 14:00 南西 3 10km以上 28 84 1010
18 13:00 南西 4 10km以上 28 84 1011
18 12:00 西南西 4 10km以上 27 94 1011
18 11:00 西 3 10km以上 26 94 1011
18 10:38 西 6 10km以上 25 100 1011 弱いしゅう雨
18 10:29 西 4 4000m 25 100 1012 しゅう雨 もや
18 10:00 西 4 10km以上 25 94 1012 弱い雨
18 09:35 西 3 10km以上 25 94 1011 弱いしゅう雨
18 09:00 南西 3 10km以上 24 100 1011 弱い雷雨
18 08:42 南南西 4 4000m 24 100 1011 雷雨 もや
18 08:30 南南西 4 3000m 24 94 1011 しゅう雨 もや
18 08:10 南西 4 1000m 25 94 1012 弱いしゅう雨 もや
17 18:00 3 10km以上 28 89 1011
17 17:00 南南西 3 10km以上 29 84 1011
17 16:00 西 6 10km以上 29 84 1011
17 15:00 南南西 4 10km以上 30 75 1011
17 14:00 5 10km以上 30 79 1011
17 13:00 南南東 6 10km以上 31 75 1011
17 12:00 4 10km以上 31 75 1012
17 11:00 4 10km以上 30 79 1012
17 10:00 5 10km以上 30 84 1012
17 09:00 4 10km以上 29 84 1012
17 08:30 3 10km以上 29 89 1012
17 08:10 3 10km以上 28 89 1012
RJFG 180900Z 28015KT 9999 FEW010 BKN/// 28/26 Q1010
RJFG 180800Z 27012KT 9999 FEW010 BKN/// 28/25 Q1010
RJFG 180700Z 27011KT 9999 FEW010 BKN/// 28/26 Q1010
RJFG 180600Z 26010KT 230V290 9999 FEW010 BKN/// 28/26 Q1010
RJFG 180500Z 22005KT 160V260 9999 FEW010 BKN/// 28/25 Q1010
RJFG 180400Z 23007KT 190V260 9999 FEW015 BKN/// 28/25 Q1011
RJFG 180300Z 25008KT 220V280 9999 FEW015 BKN/// 27/26 Q1011
RJFG 180200Z 26005KT 220V290 9999 FEW015 SCT050 BKN/// 26/25 Q1011
RJFG 180138Z 26011KT 9999 -SHRA FEW005 SCT015 BKN090 25/25 Q1011 RMK 1ST005 3CU015 5AC090 A2987
RJFG 180129Z 26008KT 4000 SHRA BR FEW001 SCT006 BKN015 25/25 Q1012 RMK 1ST001 3ST006 5CU015 A2988
RJFG 180100Z 26008KT 9999 -RA FEW015 SCT100 BKN/// 25/24 Q1012
RJFG 180035Z 27006KT 9999 -SHRA FEW010 SCT015 BKN/// 25/24 Q1011 RMK 1CU010 3CU015 A2987
RJFG 180000Z 22006KT 180V260 9999 -TSRA FEW007 SCT015 FEW020CB BKN/// 24/24 Q1011
RJFG 172342Z 20007KT 160V260 4000 TSRA BR FEW002 SCT004 BKN015 FEW020CB 24/24 Q1011 RMK 1ST002 3ST004 5CU015 1CB020 A2987 FBL TS 20KM SE MOV SE
RJFG 172330Z 20007KT 160V270 3000 SHRA BR FEW002 SCT004 BKN015 24/23 Q1011
RJFG 172310Z 22007KT 180V280 1000 R31/P2000N -SHRA BR FEW001 SCT002 BKN010 25/24 Q1012 RMK 1ST001 3ST002 5CU010 A2989
RJFG 170900Z 17006KT 130V210 9999 FEW015 BKN/// 28/26 Q1011
RJFG 170800Z 20005KT 120V250 9999 FEW015 SCT020 BKN/// 29/26 Q1011
RJFG 170700Z 26011KT 9999 FEW015 SCT020 BKN/// 29/26 Q1011
RJFG 170600Z 20008KT 150V250 9999 FEW015 BKN/// 30/25 Q1011
RJFG 170500Z 17010KT 140V210 9999 FEW015 BKN/// 30/26 Q1011
RJFG 170400Z 16011KT 140V210 9999 FEW015 BKN/// 31/26 Q1011
RJFG 170300Z 17008KT 140V210 9999 FEW015 BKN/// 31/26 Q1012
RJFG 170200Z 19008KT 140V230 9999 FEW013 SCT015 BKN/// 30/26 Q1012
RJFG 170100Z 18009KT 150V210 9999 FEW015 BKN/// 30/27 Q1012
RJFG 170000Z 17007KT 140V230 9999 FEW010 BKN/// 29/26 Q1012
RJFG 162330Z 19005KT 130V230 9999 FEW010 BKN/// 29/27 Q1012
RJFG 162310Z 19006KT 150V240 9999 FEW010 BKN/// 28/26 Q1012 RMK 1CU010 A2989